createdAt,value
2023-01-09T00:03:09.359Z,1.10
2023-01-09T00:08:11.279Z,0.90
2023-01-09T00:13:18.303Z,0.80
2023-01-09T00:18:20.108Z,0.90
2023-01-09T00:23:21.891Z,1.20
2023-01-09T00:28:23.631Z,1.20
2023-01-09T00:33:42.897Z,1.20
2023-01-09T00:38:44.612Z,1.10
2023-01-09T00:43:50.538Z,1.00
2023-01-09T00:48:52.255Z,1.07
2023-01-09T00:53:54.263Z,1.10
2023-01-09T00:58:56.378Z,1.10
2023-01-09T01:03:58.440Z,1.30
2023-01-09T01:09:00.238Z,1.10
2023-01-09T01:14:03.001Z,1.10
2023-01-09T01:19:04.742Z,1.03
2023-01-09T01:24:06.725Z,1.30
2023-01-09T01:29:08.534Z,1.10
2023-01-09T01:34:10.185Z,1.20
2023-01-09T01:39:12.076Z,1.20
2023-01-09T01:44:51.488Z,1.13
2023-01-09T01:49:53.184Z,1.10
2023-01-09T01:54:55.067Z,0.90
2023-01-09T01:59:58.714Z,1.10
2023-01-09T02:05:01.317Z,0.90
2023-01-09T02:10:03.718Z,1.00
2023-01-09T02:15:06.038Z,0.87
2023-01-09T02:20:11.423Z,1.00
2023-01-09T02:25:33.338Z,0.83
2023-01-09T02:30:43.860Z,0.80
2023-01-09T02:36:09.717Z,0.90
2023-01-09T02:41:18.142Z,0.90
2023-01-09T02:46:22.166Z,0.90
2023-01-09T02:51:40.825Z,1.00
2023-01-09T02:56:59.191Z,0.80
2023-01-09T03:02:10.829Z,0.80
2023-01-09T03:07:26.258Z,0.90
2023-01-09T03:12:29.957Z,1.00
2023-01-09T03:17:41.032Z,0.90
2023-01-09T03:22:54.781Z,1.10
2023-01-09T03:27:58.067Z,0.90
2023-01-09T03:32:59.965Z,0.87
2023-01-09T03:38:01.772Z,0.90
2023-01-09T03:43:03.584Z,0.90
2023-01-09T03:48:05.425Z,0.90
2023-01-09T03:53:07.054Z,0.90
2023-01-09T03:58:08.725Z,0.90
2023-01-09T04:03:10.657Z,1.00
2023-01-09T04:08:12.428Z,1.00
2023-01-09T04:13:15.261Z,1.00
2023-01-09T04:18:16.974Z,1.07
2023-01-09T04:23:18.639Z,1.00
2023-01-09T04:28:20.503Z,1.00
2023-01-09T04:33:22.114Z,1.20
2023-01-09T04:38:23.851Z,1.30
2023-01-09T04:43:25.983Z,1.30
2023-01-09T04:48:27.636Z,1.10
2023-01-09T04:53:30.460Z,1.70
2023-01-09T04:58:32.334Z,1.20
2023-01-09T05:03:34.361Z,1.13
2023-01-09T05:08:35.972Z,1.00
2023-01-09T05:13:37.564Z,1.30
2023-01-09T05:18:39.243Z,1.07
2023-01-09T05:23:41.051Z,1.27
2023-01-09T05:28:42.644Z,1.20
2023-01-09T05:33:44.307Z,1.20
2023-01-09T05:38:46.217Z,1.10
2023-01-09T05:43:47.797Z,1.33
2023-01-09T05:48:49.321Z,1.20
2023-01-09T05:53:51.029Z,1.20
2023-01-09T05:58:52.953Z,1.40
2023-01-09T06:03:54.646Z,1.33
2023-01-09T06:08:56.547Z,1.30
2023-01-09T06:13:58.322Z,1.27
2023-01-09T06:19:01.089Z,1.50
2023-01-09T06:24:05.627Z,1.40
2023-01-09T06:29:08.076Z,1.40
2023-01-09T06:34:09.843Z,1.03
2023-01-09T06:39:11.524Z,1.30
2023-01-09T06:44:13.272Z,1.47
2023-01-09T06:49:14.969Z,1.20
2023-01-09T06:54:18.071Z,1.40
2023-01-09T06:59:19.913Z,1.10
2023-01-09T07:04:24.615Z,1.50
2023-01-09T07:09:26.350Z,1.10
2023-01-09T07:14:29.117Z,1.23
2023-01-09T07:19:30.980Z,1.10
2023-01-09T07:24:32.765Z,1.20
2023-01-09T07:29:34.438Z,1.20
2023-01-09T07:34:36.094Z,1.10
2023-01-09T07:39:37.845Z,1.27
2023-01-09T07:44:39.574Z,1.17
2023-01-09T07:49:41.243Z,1.17
2023-01-09T07:54:43.019Z,1.10
2023-01-09T07:59:44.717Z,1.00
2023-01-09T08:04:46.518Z,1.10
2023-01-09T08:09:48.107Z,1.00
2023-01-09T08:14:51.386Z,1.00
2023-01-09T08:19:53.115Z,1.30
2023-01-09T08:24:54.755Z,1.00
2023-01-09T08:29:56.338Z,1.00
2023-01-09T08:34:58.049Z,0.93
2023-01-09T08:39:59.689Z,0.90
2023-01-09T08:45:20.052Z,1.00
2023-01-09T08:50:21.655Z,0.90
2023-01-09T08:55:23.313Z,0.90
2023-01-09T09:00:25.861Z,0.90
2023-01-09T09:05:28.724Z,1.07
2023-01-09T09:10:30.777Z,1.10
2023-01-09T09:15:34.305Z,0.87
2023-01-09T09:20:37.828Z,1.20
2023-01-09T09:25:39.592Z,1.10
2023-01-09T09:30:41.272Z,0.70
2023-01-09T09:35:42.904Z,1.00
2023-01-09T09:41:29.164Z,0.90
2023-01-09T09:47:12.173Z,0.87
2023-01-09T09:52:20.337Z,1.13
2023-01-09T09:57:37.133Z,1.00
2023-01-09T10:02:47.376Z,0.67
2023-01-09T10:07:51.015Z,1.00
2023-01-09T10:12:59.939Z,0.90
2023-01-09T10:18:31.657Z,0.93
2023-01-09T10:23:42.262Z,0.93
2023-01-09T10:28:56.104Z,0.83
2023-01-09T10:34:14.511Z,1.10
2023-01-09T10:39:21.206Z,0.90
2023-01-09T10:44:33.200Z,0.80
2023-01-09T10:49:34.976Z,0.70
2023-01-09T10:54:42.218Z,0.73
2023-01-09T10:59:43.779Z,0.60
2023-01-09T11:04:45.445Z,0.70
2023-01-09T11:10:09.661Z,0.67
2023-01-09T11:15:20.123Z,0.80
2023-01-09T11:20:26.859Z,0.80
2023-01-09T11:25:29.145Z,0.73
2023-01-09T11:30:36.141Z,0.80
2023-01-09T11:35:37.801Z,0.80
2023-01-09T11:40:51.746Z,0.70
2023-01-09T11:46:01.026Z,0.57
2023-01-09T11:51:07.305Z,0.60
2023-01-09T11:56:09.203Z,0.60
2023-01-09T12:01:30.091Z,0.63
2023-01-09T12:06:53.198Z,0.60
2023-01-09T12:11:55.518Z,0.90
2023-01-09T12:17:24.593Z,0.73
2023-01-09T12:22:41.955Z,0.60
2023-01-09T12:28:15.584Z,0.70
2023-01-09T12:33:51.498Z,0.90
2023-01-09T12:39:15.050Z,0.87
2023-01-09T12:44:35.580Z,0.70
2023-01-09T12:49:45.698Z,0.67
2023-01-09T12:55:16.773Z,0.77
2023-01-09T13:00:30.428Z,0.70
2023-01-09T13:05:45.633Z,0.60
2023-01-09T13:10:57.612Z,0.83
2023-01-09T13:16:03.031Z,0.70
2023-01-09T13:21:05.836Z,0.70
2023-01-09T13:26:12.070Z,0.70
2023-01-09T13:31:22.399Z,0.90
2023-01-09T13:36:47.860Z,0.80
2023-01-09T13:42:12.164Z,0.90
2023-01-09T13:47:30.804Z,0.80
2023-01-09T13:52:36.867Z,0.97
2023-01-09T13:57:42.857Z,1.17
2023-01-09T14:02:46.581Z,0.97
2023-01-09T14:07:50.399Z,1.00
2023-01-09T14:12:54.356Z,1.00
2023-01-09T14:18:01.667Z,0.73
2023-01-09T14:23:35.283Z,0.90
2023-01-09T14:28:30.683Z,0.90
2023-01-09T14:33:32.932Z,0.83
2023-01-09T14:38:35.180Z,0.80
2023-01-09T14:43:50.984Z,1.10
2023-01-09T14:49:50.600Z,1.10
2023-01-09T14:54:55.404Z,1.30
2023-01-09T15:00:16.715Z,1.17
2023-01-09T15:05:24.457Z,1.40
2023-01-09T15:10:46.034Z,1.53
2023-01-09T15:15:55.034Z,1.53
2023-01-09T15:21:06.618Z,1.30
2023-01-09T15:26:26.451Z,1.20
2023-01-09T15:31:28.549Z,1.17
2023-01-09T15:36:31.189Z,1.30
2023-01-09T15:41:51.282Z,1.40
2023-01-09T15:46:59.727Z,1.20
2023-01-09T15:52:02.483Z,1.07
2023-01-09T15:57:33.107Z,1.27
2023-01-09T16:02:53.388Z,1.53
2023-01-09T16:07:54.955Z,1.37
2023-01-09T16:12:57.158Z,1.40
2023-01-09T16:18:13.877Z,1.53
2023-01-09T16:23:22.800Z,1.37
2023-01-09T16:28:28.245Z,1.30
2023-01-09T16:33:31.334Z,1.30
2023-01-09T16:38:33.020Z,1.30
2023-01-09T16:43:35.609Z,1.10
2023-01-09T16:48:39.059Z,1.50
2023-01-09T16:53:40.886Z,1.57
2023-01-09T16:58:54.968Z,1.40
2023-01-09T17:03:56.681Z,1.50
2023-01-09T17:08:58.565Z,1.60
2023-01-09T17:14:01.260Z,1.40
2023-01-09T17:19:03.579Z,1.40
2023-01-09T17:24:24.458Z,1.60
2023-01-09T17:29:27.774Z,1.80
2023-01-09T17:34:29.639Z,1.53
2023-01-09T17:39:32.406Z,1.50
2023-01-09T17:44:34.161Z,1.50
2023-01-09T17:49:35.836Z,1.40
2023-01-09T17:54:37.600Z,1.50
2023-01-09T17:59:39.494Z,1.40
2023-01-09T18:04:41.249Z,1.60
2023-01-09T18:09:51.977Z,1.50
2023-01-09T18:14:54.040Z,1.60
2023-01-09T18:19:55.887Z,1.60
2023-01-09T18:24:57.615Z,2.10
2023-01-09T18:30:03.069Z,1.80
2023-01-09T18:35:09.005Z,1.70
2023-01-09T18:40:11.395Z,1.73
2023-01-09T18:45:13.301Z,1.70
2023-01-09T18:50:15.369Z,1.60
2023-01-09T18:55:17.180Z,1.80
2023-01-09T19:00:19.673Z,1.90
2023-01-09T19:05:21.526Z,2.57
2023-01-09T19:10:23.965Z,2.00
2023-01-09T19:15:25.822Z,2.03
2023-01-09T19:20:28.690Z,2.20
2023-01-09T19:25:30.880Z,2.07
2023-01-09T19:30:34.621Z,2.10
2023-01-09T19:35:36.448Z,2.23
2023-01-09T19:40:39.426Z,1.80
2023-01-09T19:45:41.566Z,1.53
2023-01-09T19:50:43.821Z,2.87
2023-01-09T19:55:45.556Z,1.40
2023-01-09T20:00:47.384Z,1.60
2023-01-09T20:05:49.123Z,1.60
2023-01-09T20:10:50.798Z,1.70
2023-01-09T20:15:53.551Z,1.53
2023-01-09T20:20:56.776Z,2.07
2023-01-09T20:26:00.014Z,1.80
2023-01-09T20:31:03.044Z,1.87
2023-01-09T20:36:05.453Z,2.20
2023-01-09T20:41:12.937Z,1.90
2023-01-09T20:46:14.606Z,1.80
2023-01-09T20:51:17.532Z,2.30
2023-01-09T20:56:19.268Z,2.00
2023-01-09T21:01:22.910Z,2.13
2023-01-09T21:06:25.693Z,2.30
2023-01-09T21:11:27.530Z,2.10
2023-01-09T21:16:29.622Z,2.40
2023-01-09T21:21:31.383Z,2.10
2023-01-09T21:26:33.370Z,1.80
2023-01-09T21:31:35.654Z,2.03
2023-01-09T21:36:37.738Z,1.83
2023-01-09T21:41:58.826Z,2.00
2023-01-09T21:47:01.900Z,2.23
2023-01-09T21:52:04.639Z,1.80
2023-01-09T21:57:06.603Z,2.10
2023-01-09T22:02:11.911Z,1.80
2023-01-09T22:07:13.646Z,2.33
2023-01-09T22:12:15.372Z,1.63
2023-01-09T22:17:18.159Z,1.93
2023-01-09T22:22:19.944Z,1.87
2023-01-09T22:27:21.571Z,1.73
2023-01-09T22:32:23.284Z,1.70
2023-01-09T22:37:24.939Z,1.90
2023-01-09T22:42:27.249Z,1.90
2023-01-09T22:47:28.989Z,1.90
2023-01-09T22:52:30.841Z,2.23
2023-01-09T22:57:32.661Z,2.53
2023-01-09T23:02:36.482Z,2.70
2023-01-09T23:07:38.201Z,2.60
2023-01-09T23:12:39.925Z,2.50
2023-01-09T23:17:42.945Z,2.37
2023-01-09T23:22:44.660Z,2.60
2023-01-09T23:27:46.281Z,2.50
2023-01-09T23:32:48.457Z,2.70
2023-01-09T23:37:50.137Z,2.40
2023-01-09T23:43:10.500Z,2.20
2023-01-09T23:48:15.163Z,2.50
2023-01-09T23:53:22.290Z,2.20
2023-01-09T23:58:26.732Z,2.23
